createdAt,value
2022-08-26T00:00:07.607Z,93447.38
2022-08-26T00:01:04.520Z,93442.97
2022-08-26T00:02:01.546Z,93443.16
2022-08-26T00:02:59.034Z,93442.56
2022-08-26T00:03:56.520Z,93441.50
2022-08-26T00:04:53.256Z,93440.66
2022-08-26T00:05:51.171Z,93449.94
2022-08-26T00:06:48.265Z,93437.38
2022-08-26T00:07:44.979Z,93426.72
2022-08-26T00:08:42.205Z,93432.06
2022-08-26T00:09:47.404Z,93441.59
2022-08-26T00:10:44.320Z,93440.44
2022-08-26T00:11:41.071Z,93435.81
2022-08-26T00:12:38.801Z,93439.38
2022-08-26T00:13:36.936Z,93441.41
2022-08-26T00:14:33.644Z,93438.78
2022-08-26T00:15:30.726Z,93430.59
2022-08-26T00:16:29.412Z,93439.47
2022-08-26T00:17:26.229Z,93432.47
2022-08-26T00:18:23.438Z,93435.91
2022-08-26T00:19:23.111Z,93427.81
2022-08-26T00:20:25.640Z,93433.13
2022-08-26T00:21:24.434Z,93435.06
2022-08-26T00:22:21.625Z,93437.72
2022-08-26T00:23:18.647Z,93434.63
2022-08-26T00:24:18.430Z,93434.94
2022-08-26T00:25:15.668Z,93418.28
2022-08-26T00:26:14.737Z,93436.53
2022-08-26T00:27:11.952Z,93430.78
2022-08-26T00:28:08.612Z,93429.31
2022-08-26T00:29:07.623Z,93433.22
2022-08-26T00:30:10.079Z,93430.91
2022-08-26T00:31:07.165Z,93429.34
2022-08-26T00:32:04.185Z,93439.28
2022-08-26T00:33:02.415Z,93434.56
2022-08-26T00:33:59.426Z,93420.88
2022-08-26T00:34:56.193Z,93430.41
2022-08-26T00:35:53.508Z,93438.41
2022-08-26T00:36:52.102Z,93424.84
2022-08-26T00:37:49.269Z,93431.78
2022-08-26T00:38:45.944Z,93422.50
2022-08-26T00:39:42.711Z,93423.81
2022-08-26T00:40:45.558Z,93429.56
2022-08-26T00:41:42.273Z,93430.25
2022-08-26T00:42:38.964Z,93428.47
2022-08-26T00:43:46.335Z,93422.91
2022-08-26T00:44:44.927Z,93426.84
2022-08-26T00:45:48.533Z,93427.38
2022-08-26T00:46:50.898Z,93431.31
2022-08-26T00:48:02.591Z,93433.03
2022-08-26T00:49:12.012Z,93421.06
2022-08-26T00:50:13.694Z,93420.81
2022-08-26T00:51:16.953Z,93430.53
2022-08-26T00:52:18.579Z,93433.69
2022-08-26T00:53:24.087Z,93423.91
2022-08-26T00:54:26.759Z,93427.72
2022-08-26T00:55:34.540Z,93429.69
2022-08-26T00:56:41.628Z,93432.16
2022-08-26T00:57:39.180Z,93432.06
2022-08-26T00:58:38.349Z,93426.56
2022-08-26T00:59:38.908Z,93436.50
2022-08-26T01:00:35.879Z,93430.41
2022-08-26T01:01:33.313Z,93429.19
2022-08-26T01:02:30.152Z,93427.63
2022-08-26T01:03:29.288Z,93427.31
2022-08-26T01:04:26.233Z,93421.13
2022-08-26T01:05:23.891Z,93419.19
2022-08-26T01:06:20.905Z,93427.47
2022-08-26T01:07:18.090Z,93417.72
2022-08-26T01:08:15.914Z,93420.75
2022-08-26T01:09:13.061Z,93417.31
2022-08-26T01:10:14.395Z,93424.53
2022-08-26T01:11:12.557Z,93406.22
2022-08-26T01:12:09.351Z,93429.13
2022-08-26T01:13:12.932Z,93420.81
2022-08-26T01:14:10.559Z,93428.81
2022-08-26T01:15:13.726Z,93408.59
2022-08-26T01:16:13.116Z,93426.75
2022-08-26T01:17:10.263Z,93426.75
2022-08-26T01:18:08.696Z,93422.22
2022-08-26T01:19:19.035Z,93431.59
2022-08-26T01:20:23.897Z,93423.44
2022-08-26T01:21:31.183Z,93412.34
2022-08-26T01:22:40.029Z,93422.50
2022-08-26T01:23:45.054Z,93428.22
2022-08-26T01:24:42.687Z,93420.34
2022-08-26T01:25:46.246Z,93417.13
2022-08-26T01:26:44.782Z,93419.00
2022-08-26T01:27:41.941Z,93398.63
2022-08-26T01:28:42.620Z,93422.09
2022-08-26T01:29:43.536Z,93414.75
2022-08-26T01:30:41.433Z,93414.31
2022-08-26T01:31:47.796Z,93411.25
2022-08-26T01:32:45.740Z,93412.16
2022-08-26T01:33:57.221Z,93412.13
2022-08-26T01:34:54.504Z,93415.00
2022-08-26T01:35:52.585Z,93416.03
2022-08-26T01:36:51.793Z,93412.94
2022-08-26T01:37:53.429Z,93407.22
2022-08-26T01:38:50.124Z,93414.56
2022-08-26T01:39:50.579Z,93409.59
2022-08-26T01:40:48.944Z,93413.09
2022-08-26T01:41:47.682Z,93407.22
2022-08-26T01:42:50.666Z,93408.75
2022-08-26T01:43:52.684Z,93412.72
2022-08-26T01:44:54.054Z,93415.31
2022-08-26T01:45:54.662Z,93393.78
2022-08-26T01:46:52.951Z,93415.78
2022-08-26T01:47:56.919Z,93414.69
2022-08-26T01:48:55.351Z,93409.16
2022-08-26T01:49:56.366Z,93414.63
2022-08-26T01:50:53.919Z,93419.88
2022-08-26T01:51:54.071Z,93418.50
2022-08-26T01:52:54.607Z,93414.31
2022-08-26T01:53:51.777Z,93407.72
2022-08-26T01:54:51.615Z,93402.66
2022-08-26T01:55:53.097Z,93404.72
2022-08-26T01:56:51.256Z,93392.56
2022-08-26T01:57:52.154Z,93416.13
2022-08-26T01:58:57.623Z,93414.31
2022-08-26T01:59:58.915Z,93410.44
2022-08-26T02:00:55.727Z,93407.75
2022-08-26T02:01:53.251Z,93412.00
2022-08-26T02:03:14.379Z,93413.25
2022-08-26T02:04:35.414Z,93414.38
2022-08-26T02:05:32.147Z,93398.56
2022-08-26T02:06:29.904Z,93415.88
2022-08-26T02:07:27.966Z,93416.88
2022-08-26T02:08:52.682Z,93412.59
2022-08-26T02:09:49.540Z,93413.41
2022-08-26T02:10:46.284Z,93399.63
2022-08-26T02:11:43.021Z,93408.91
2022-08-26T02:12:40.007Z,93415.88
2022-08-26T02:13:43.970Z,93411.00
2022-08-26T02:14:50.169Z,93417.53
2022-08-26T02:15:48.454Z,93416.47
2022-08-26T02:16:50.769Z,93415.66
2022-08-26T02:17:47.953Z,93409.72
2022-08-26T02:18:52.841Z,93414.84
2022-08-26T02:19:50.855Z,93414.84
2022-08-26T02:20:47.854Z,93413.38
2022-08-26T02:21:51.050Z,93395.31
2022-08-26T02:22:48.624Z,93421.50
2022-08-26T02:23:45.548Z,93402.47
2022-08-26T02:24:54.864Z,93407.72
2022-08-26T02:26:10.789Z,93414.25
2022-08-26T02:27:07.400Z,93396.84
2022-08-26T02:28:04.841Z,93406.94
2022-08-26T02:29:13.354Z,93393.13
2022-08-26T02:30:18.241Z,93410.00
2022-08-26T02:31:15.072Z,93398.78
2022-08-26T02:32:12.048Z,93389.16
2022-08-26T02:33:15.136Z,93411.59
2022-08-26T02:34:15.296Z,93401.91
2022-08-26T02:35:13.743Z,93400.38
2022-08-26T02:36:20.819Z,93407.66
2022-08-26T02:37:17.924Z,93412.75
2022-08-26T02:38:16.832Z,93411.56
2022-08-26T02:39:18.008Z,93412.34
2022-08-26T02:40:22.499Z,93414.25
2022-08-26T02:41:19.173Z,93385.06
2022-08-26T02:42:15.837Z,93402.31
2022-08-26T02:43:12.687Z,93410.75
2022-08-26T02:44:09.484Z,93399.56
2022-08-26T02:45:07.458Z,93398.81
2022-08-26T02:46:04.577Z,93409.53
2022-08-26T02:47:01.412Z,93403.75
2022-08-26T02:47:58.627Z,93408.00
2022-08-26T02:48:56.373Z,93412.63
2022-08-26T02:49:53.064Z,93409.53
2022-08-26T02:50:50.158Z,93414.63
2022-08-26T02:51:47.041Z,93415.03
2022-08-26T02:52:43.854Z,93402.41
2022-08-26T02:53:40.524Z,93414.25
2022-08-26T02:54:39.273Z,93400.00
2022-08-26T02:55:36.765Z,93408.88
2022-08-26T02:56:34.768Z,93387.06
2022-08-26T02:57:32.185Z,93412.34
2022-08-26T02:58:28.849Z,93418.09
2022-08-26T02:59:25.586Z,93400.44
2022-08-26T03:00:25.139Z,93401.28
2022-08-26T03:01:26.268Z,93412.03
2022-08-26T03:02:23.195Z,93418.63
2022-08-26T03:03:19.861Z,93414.03
2022-08-26T03:04:19.409Z,93411.72
2022-08-26T03:05:19.747Z,93409.28
2022-08-26T03:06:17.500Z,93402.50
2022-08-26T03:07:14.113Z,93413.50
2022-08-26T03:08:11.897Z,93411.97
2022-08-26T03:09:09.238Z,93414.28
2022-08-26T03:10:08.562Z,93414.03
2022-08-26T03:11:06.089Z,93411.28
2022-08-26T03:12:03.550Z,93412.81
2022-08-26T03:13:00.607Z,93408.25
2022-08-26T03:14:03.806Z,93412.09
2022-08-26T03:15:00.523Z,93418.00
2022-08-26T03:15:57.225Z,93414.84
2022-08-26T03:16:54.759Z,93418.44
2022-08-26T03:17:52.321Z,93403.72
2022-08-26T03:18:52.183Z,93408.25
2022-08-26T03:19:52.987Z,93411.28
2022-08-26T03:20:53.824Z,93416.28
2022-08-26T03:21:52.345Z,93409.81
2022-08-26T03:22:51.558Z,93419.91
2022-08-26T03:23:48.355Z,93389.63
2022-08-26T03:24:46.219Z,93421.16
2022-08-26T03:25:43.310Z,93409.09
2022-08-26T03:26:40.167Z,93416.13
2022-08-26T03:27:49.279Z,93408.91
2022-08-26T03:29:04.294Z,93413.47
2022-08-26T03:30:19.822Z,93417.34
2022-08-26T03:31:16.957Z,93411.94
2022-08-26T03:32:14.121Z,93412.78
2022-08-26T03:33:12.152Z,93415.78
2022-08-26T03:34:08.788Z,93418.88
2022-08-26T03:35:05.808Z,93415.72
2022-08-26T03:36:04.141Z,93416.91
2022-08-26T03:37:01.582Z,93415.75
2022-08-26T03:37:58.811Z,93405.69
2022-08-26T03:38:55.451Z,93413.34
2022-08-26T03:39:52.108Z,93402.59
2022-08-26T03:40:49.388Z,93415.28
2022-08-26T03:41:47.467Z,93408.72
2022-08-26T03:42:45.383Z,93417.59
2022-08-26T03:43:42.185Z,93412.59
2022-08-26T03:44:42.079Z,93414.53
2022-08-26T03:45:39.602Z,93390.00
2022-08-26T03:46:38.481Z,93411.06
2022-08-26T03:47:35.271Z,93411.72
2022-08-26T03:48:35.498Z,93405.94
2022-08-26T03:49:34.222Z,93415.59
2022-08-26T03:50:34.373Z,93405.63
2022-08-26T03:51:33.558Z,93410.97
2022-08-26T03:52:31.551Z,93412.03
2022-08-26T03:53:28.507Z,93393.28
2022-08-26T03:54:25.122Z,93395.50
2022-08-26T03:55:25.863Z,93401.28
2022-08-26T03:56:24.009Z,93416.22
2022-08-26T03:57:20.807Z,93412.75
2022-08-26T03:58:20.496Z,93404.72
2022-08-26T03:59:17.259Z,93407.66
2022-08-26T04:00:18.420Z,93412.34
2022-08-26T04:01:16.320Z,93405.44
2022-08-26T04:02:13.107Z,93397.69
2022-08-26T04:03:14.725Z,93406.13
2022-08-26T04:04:15.627Z,93404.56
2022-08-26T04:05:14.183Z,93410.75
2022-08-26T04:06:10.878Z,93411.50
2022-08-26T04:07:07.546Z,93380.13
2022-08-26T04:08:06.012Z,93403.69
2022-08-26T04:09:08.000Z,93402.75
2022-08-26T04:10:05.140Z,93401.28
2022-08-26T04:11:02.486Z,93407.06
2022-08-26T04:11:59.172Z,93394.00
2022-08-26T04:12:56.258Z,93402.44
2022-08-26T04:13:56.154Z,93403.66
2022-08-26T04:14:53.593Z,93395.16
2022-08-26T04:15:50.717Z,93382.16
2022-08-26T04:16:48.299Z,93395.84
2022-08-26T04:17:45.345Z,93399.72
2022-08-26T04:18:46.469Z,93395.00
2022-08-26T04:19:43.670Z,93393.47
2022-08-26T04:20:40.457Z,93401.28
2022-08-26T04:21:38.439Z,93377.53
2022-08-26T04:22:35.266Z,93386.28
2022-08-26T04:23:32.241Z,93391.97
2022-08-26T04:24:44.363Z,93393.94
2022-08-26T04:25:41.041Z,93395.88
2022-08-26T04:26:39.456Z,93398.97
2022-08-26T04:27:40.782Z,93382.03
2022-08-26T04:28:37.476Z,93389.47
2022-08-26T04:29:34.202Z,93398.25
2022-08-26T04:30:32.369Z,93392.84
2022-08-26T04:31:30.912Z,93379.94
2022-08-26T04:32:27.758Z,93389.44
2022-08-26T04:33:29.433Z,93377.16
2022-08-26T04:34:29.400Z,93393.97
2022-08-26T04:35:26.334Z,93399.31
2022-08-26T04:36:24.027Z,93386.84
2022-08-26T04:37:20.663Z,93392.47
2022-08-26T04:38:19.947Z,93392.44
2022-08-26T04:39:16.969Z,93394.72
2022-08-26T04:40:15.445Z,93398.25
2022-08-26T04:41:15.425Z,93395.16
2022-08-26T04:42:13.580Z,93403.25
2022-08-26T04:43:10.295Z,93396.06
2022-08-26T04:44:07.871Z,93401.38
2022-08-26T04:45:05.934Z,93402.78
2022-08-26T04:46:07.999Z,93405.88
2022-08-26T04:47:05.888Z,93407.84
2022-08-26T04:48:02.852Z,93405.09
2022-08-26T04:49:01.055Z,93409.84
2022-08-26T04:49:58.272Z,93405.53
2022-08-26T04:50:55.029Z,93405.53
2022-08-26T04:51:52.796Z,93393.91
2022-08-26T04:52:49.755Z,93301.75
2022-08-26T04:53:46.710Z,93410.06
2022-08-26T04:54:43.336Z,93406.19
2022-08-26T04:55:42.855Z,93409.63
2022-08-26T04:56:44.691Z,93402.94
2022-08-26T04:57:41.428Z,93411.50
2022-08-26T04:58:38.453Z,93411.69
2022-08-26T04:59:39.173Z,93410.81
2022-08-26T05:00:36.167Z,93401.00
2022-08-26T05:01:33.030Z,93406.75
2022-08-26T05:02:36.489Z,93403.63
2022-08-26T05:03:33.128Z,93404.50
2022-08-26T05:04:30.272Z,93411.91
2022-08-26T05:05:27.528Z,93401.63
2022-08-26T05:06:24.763Z,93409.81
2022-08-26T05:07:21.369Z,93413.84
2022-08-26T05:08:20.642Z,93411.03
2022-08-26T05:09:21.132Z,93416.88
2022-08-26T05:10:17.886Z,93416.41
2022-08-26T05:11:15.524Z,93414.28
2022-08-26T05:12:12.308Z,93401.09
2022-08-26T05:13:11.062Z,93415.00
2022-08-26T05:14:09.719Z,93415.47
2022-08-26T05:15:07.089Z,93416.84
2022-08-26T05:16:06.473Z,93401.28
2022-08-26T05:17:03.512Z,93412.97
2022-08-26T05:18:03.922Z,93420.16
2022-08-26T05:19:00.698Z,93411.72
2022-08-26T05:19:58.371Z,93412.03
2022-08-26T05:20:55.975Z,93402.44
2022-08-26T05:21:52.742Z,93414.19
2022-08-26T05:22:49.416Z,93416.94
2022-08-26T05:23:51.348Z,93416.06
2022-08-26T05:24:47.967Z,93378.97
2022-08-26T05:25:47.776Z,93370.50
2022-08-26T05:26:44.885Z,93412.72
2022-08-26T05:27:41.544Z,93416.66
2022-08-26T05:28:38.221Z,93422.88
2022-08-26T05:29:35.039Z,93397.91
2022-08-26T05:30:32.424Z,93418.13
2022-08-26T05:31:31.914Z,93415.88
2022-08-26T05:32:28.794Z,93405.09
2022-08-26T05:33:25.903Z,93414.28
2022-08-26T05:34:22.627Z,93426.53
2022-08-26T05:35:22.972Z,93423.44
2022-08-26T05:36:22.300Z,93427.72
2022-08-26T05:37:19.413Z,93426.09
2022-08-26T05:38:21.673Z,93423.06
2022-08-26T05:39:18.626Z,93424.56
2022-08-26T05:40:15.553Z,93425.00
2022-08-26T05:41:23.775Z,93424.09
2022-08-26T05:42:20.444Z,93424.66
2022-08-26T05:43:18.639Z,93418.91
2022-08-26T05:44:18.920Z,93427.81
2022-08-26T05:45:15.614Z,93419.44
2022-08-26T05:46:13.989Z,93415.47
2022-08-26T05:47:11.943Z,93424.19
2022-08-26T05:48:09.112Z,93423.78
2022-08-26T05:49:12.834Z,93426.47
2022-08-26T05:50:09.928Z,93425.78
2022-08-26T05:51:10.736Z,93414.28
2022-08-26T05:52:08.251Z,93425.78
2022-08-26T05:53:09.725Z,93424.56
2022-08-26T05:54:10.401Z,93426.91
2022-08-26T05:55:07.628Z,93426.47
2022-08-26T05:56:06.172Z,93431.88
2022-08-26T05:57:04.806Z,93395.56
2022-08-26T05:58:03.732Z,93424.66
2022-08-26T05:59:02.350Z,93433.19
2022-08-26T06:00:01.130Z,93427.94
2022-08-26T06:00:59.470Z,93430.38
2022-08-26T06:01:56.430Z,93433.75
2022-08-26T06:02:53.520Z,93419.59
2022-08-26T06:03:52.948Z,93432.69
2022-08-26T06:04:49.621Z,93417.97
2022-08-26T06:05:46.347Z,93414.53
2022-08-26T06:06:43.167Z,93435.66
2022-08-26T06:08:00.163Z,93440.22
2022-08-26T06:08:59.394Z,93427.94
2022-08-26T06:10:09.966Z,93432.81
2022-08-26T06:11:18.373Z,93429.19
2022-08-26T06:12:15.849Z,93415.56
2022-08-26T06:13:18.400Z,93434.75
2022-08-26T06:14:15.660Z,93409.28
2022-08-26T06:15:12.394Z,93431.81
2022-08-26T06:16:15.765Z,93432.91
2022-08-26T06:17:13.167Z,93436.06
2022-08-26T06:18:10.221Z,93440.34
2022-08-26T06:19:10.405Z,93434.03
2022-08-26T06:20:08.290Z,93419.69
2022-08-26T06:21:32.604Z,93436.53
2022-08-26T06:22:48.164Z,93448.53
2022-08-26T06:24:06.126Z,93445.47
2022-08-26T06:25:21.388Z,93431.66
2022-08-26T06:26:19.640Z,93442.03
2022-08-26T06:27:16.238Z,93444.50
2022-08-26T06:28:15.325Z,93447.81
2022-08-26T06:29:11.960Z,93451.84
2022-08-26T06:30:21.105Z,93450.22
2022-08-26T06:31:19.461Z,93451.31
2022-08-26T06:32:16.386Z,93451.31
2022-08-26T06:33:13.877Z,93452.16
2022-08-26T06:34:11.051Z,93451.44
2022-08-26T06:35:12.252Z,93456.25
2022-08-26T06:36:09.305Z,93451.25
2022-08-26T06:37:06.678Z,93441.38
2022-08-26T06:38:04.039Z,93454.91
2022-08-26T06:39:04.733Z,93452.41
2022-08-26T06:40:01.370Z,93439.44
2022-08-26T06:41:01.086Z,93454.81
2022-08-26T06:42:00.336Z,93454.81
2022-08-26T06:42:57.016Z,93456.16
2022-08-26T06:43:53.724Z,93458.59
2022-08-26T06:44:50.371Z,93453.53
2022-08-26T06:45:47.553Z,93454.00
2022-08-26T06:46:44.699Z,93449.78
2022-08-26T06:47:41.943Z,93457.41
2022-08-26T06:48:39.744Z,93459.66
2022-08-26T06:49:37.233Z,93460.69
2022-08-26T06:50:34.966Z,93452.56
2022-08-26T06:51:34.714Z,93439.69
2022-08-26T06:52:31.424Z,93459.44
2022-08-26T06:53:28.212Z,93464.13
2022-08-26T06:54:27.049Z,93461.09
2022-08-26T06:55:26.937Z,93465.72
2022-08-26T06:56:26.550Z,93460.00
2022-08-26T06:57:23.286Z,93466.88
2022-08-26T06:58:20.020Z,93466.69
2022-08-26T06:59:16.732Z,93451.31
2022-08-26T07:00:15.574Z,93463.50
2022-08-26T07:01:20.226Z,93460.78
2022-08-26T07:02:17.895Z,93459.44
2022-08-26T07:03:14.695Z,93462.50
2022-08-26T07:04:14.602Z,93458.53
2022-08-26T07:05:13.303Z,93461.72
2022-08-26T07:06:10.924Z,93461.66
2022-08-26T07:07:07.592Z,93450.69
2022-08-26T07:08:06.598Z,93455.59
2022-08-26T07:09:06.579Z,93462.69
2022-08-26T07:10:08.572Z,93463.75
2022-08-26T07:11:10.260Z,93463.25
2022-08-26T07:12:07.440Z,93443.22
2022-08-26T07:13:04.133Z,93461.31
2022-08-26T07:14:03.382Z,93463.16
2022-08-26T07:15:00.402Z,93458.00
2022-08-26T07:15:58.132Z,93442.22
2022-08-26T07:17:01.002Z,93463.75
2022-08-26T07:17:57.618Z,93456.56
2022-08-26T07:18:54.724Z,93465.88
2022-08-26T07:19:51.669Z,93457.75
2022-08-26T07:20:49.291Z,93460.38
2022-08-26T07:21:46.291Z,93463.59
2022-08-26T07:22:46.122Z,93447.56
2022-08-26T07:23:42.983Z,93457.75
2022-08-26T07:24:42.457Z,93459.69
2022-08-26T07:25:40.935Z,93460.03
2022-08-26T07:26:42.975Z,93461.22
2022-08-26T07:27:39.947Z,93434.97
2022-08-26T07:28:38.255Z,93463.59
2022-08-26T07:29:35.649Z,93462.91
2022-08-26T07:30:32.449Z,93460.22
2022-08-26T07:31:36.105Z,93463.94
2022-08-26T07:32:37.709Z,93462.06
2022-08-26T07:33:36.035Z,93465.78
2022-08-26T07:34:34.409Z,93458.84
2022-08-26T07:35:31.349Z,93465.78
2022-08-26T07:36:31.093Z,93427.16
2022-08-26T07:37:28.215Z,93462.19
2022-08-26T07:38:27.311Z,93468.47
2022-08-26T07:39:24.712Z,93464.44
2022-08-26T07:40:22.187Z,93452.03
2022-08-26T07:41:22.869Z,93464.34
2022-08-26T07:42:21.158Z,93464.25
2022-08-26T07:43:18.651Z,93451.97
2022-08-26T07:44:17.528Z,93465.22
2022-08-26T07:45:14.376Z,93464.16
2022-08-26T07:46:18.472Z,93461.81
2022-08-26T07:47:25.515Z,93446.25
2022-08-26T07:48:23.596Z,93460.19
2022-08-26T07:49:24.536Z,93468.28
2022-08-26T07:50:22.489Z,93466.84
2022-08-26T07:51:40.325Z,93467.56
2022-08-26T07:52:38.275Z,93467.66
2022-08-26T07:53:36.676Z,93459.19
2022-08-26T07:54:33.689Z,93465.47
2022-08-26T07:55:30.672Z,93474.81
2022-08-26T07:56:29.534Z,93465.28
2022-08-26T07:57:27.011Z,93479.06
2022-08-26T07:58:23.721Z,93474.97
2022-08-26T07:59:20.396Z,93471.06
2022-08-26T08:00:20.637Z,93464.09
2022-08-26T08:01:17.482Z,93460.63
2022-08-26T08:02:14.160Z,93468.19
2022-08-26T08:03:10.937Z,93470.56
2022-08-26T08:04:07.616Z,93465.25
2022-08-26T08:05:07.309Z,93468.59
2022-08-26T08:06:06.700Z,93471.13
2022-08-26T08:07:05.553Z,93469.50
2022-08-26T08:08:26.856Z,93469.31
2022-08-26T08:09:30.516Z,93464.34
2022-08-26T08:10:29.890Z,93468.31
2022-08-26T08:11:30.430Z,93469.53
2022-08-26T08:12:28.005Z,93455.84
2022-08-26T08:13:25.052Z,93471.69
2022-08-26T08:14:22.158Z,93459.94
2022-08-26T08:15:25.022Z,93471.34
2022-08-26T08:16:21.714Z,93463.78
2022-08-26T08:17:21.438Z,93467.75
2022-08-26T08:18:20.587Z,93468.31
2022-08-26T08:19:18.209Z,93463.44
2022-08-26T08:20:15.196Z,93469.22
2022-08-26T08:21:21.794Z,93461.16
2022-08-26T08:22:23.648Z,93468.00
2022-08-26T08:23:21.004Z,93466.50
2022-08-26T08:24:17.959Z,93466.03
2022-08-26T08:25:14.812Z,93449.06
2022-08-26T08:26:11.998Z,93460.31
2022-08-26T08:27:10.803Z,93468.41
2022-08-26T08:28:07.697Z,93463.16
2022-08-26T08:29:08.899Z,93463.34
2022-08-26T08:30:07.702Z,93469.34
2022-08-26T08:31:07.996Z,93453.31
2022-08-26T08:32:05.564Z,93469.22
2022-08-26T08:33:08.692Z,93466.97
2022-08-26T08:34:07.469Z,93467.19
2022-08-26T08:35:11.626Z,93469.03
2022-08-26T08:36:09.283Z,93474.25
2022-08-26T08:37:10.627Z,93455.72
2022-08-26T08:38:07.740Z,93466.97
2022-08-26T08:39:04.523Z,93468.47
2022-08-26T08:40:05.155Z,93479.69
2022-08-26T08:41:03.462Z,93464.78
2022-08-26T08:42:33.559Z,93463.16
2022-08-26T08:43:38.681Z,93463.28
2022-08-26T08:44:40.269Z,93462.88
2022-08-26T08:45:47.155Z,93460.22
2022-08-26T08:46:54.182Z,93457.78
2022-08-26T08:47:57.372Z,93460.34
2022-08-26T08:48:57.288Z,93453.88
2022-08-26T08:49:58.464Z,93454.00
2022-08-26T08:51:34.346Z,93448.84
2022-08-26T08:52:37.633Z,93453.28
2022-08-26T08:53:39.032Z,93446.16
2022-08-26T08:54:37.355Z,93454.19
2022-08-26T08:56:06.461Z,93444.75
2022-08-26T08:57:13.116Z,93439.59
2022-08-26T08:58:19.676Z,93453.06
2022-08-26T08:59:26.065Z,93447.22
2022-08-26T09:00:30.236Z,93433.84
2022-08-26T09:01:42.393Z,93442.63
2022-08-26T09:02:57.586Z,93446.16
2022-08-26T09:04:28.278Z,93441.53
2022-08-26T09:05:40.203Z,93446.34
2022-08-26T09:06:37.273Z,93445.84
2022-08-26T09:07:47.070Z,93448.78
2022-08-26T09:08:46.923Z,93452.69
2022-08-26T09:10:14.065Z,93444.16
2022-08-26T09:11:10.922Z,93448.47
2022-08-26T09:12:14.848Z,93425.19
2022-08-26T09:13:26.129Z,93432.25
2022-08-26T09:14:24.734Z,93448.91
2022-08-26T09:15:55.193Z,93452.81
2022-08-26T09:17:21.127Z,93452.75
2022-08-26T09:18:46.148Z,93448.16
2022-08-26T09:19:55.132Z,93439.50
2022-08-26T09:21:03.370Z,93443.44
2022-08-26T09:22:02.260Z,93448.25
2022-08-26T09:23:02.761Z,93440.13
2022-08-26T09:24:00.117Z,93442.09
2022-08-26T09:24:57.244Z,93437.97
2022-08-26T09:26:01.179Z,93446.34
2022-08-26T09:26:59.322Z,93435.38
2022-08-26T09:27:56.091Z,93430.97
2022-08-26T09:28:56.261Z,93441.66
2022-08-26T09:29:52.925Z,93429.28
2022-08-26T09:31:15.036Z,93431.88
2022-08-26T09:32:24.388Z,93436.94
2022-08-26T09:33:28.672Z,93431.19
2022-08-26T09:34:28.114Z,93413.63
2022-08-26T09:35:32.429Z,93431.91
2022-08-26T09:36:41.455Z,93431.56
2022-08-26T09:37:42.996Z,93426.91
2022-08-26T09:38:40.232Z,93413.09
2022-08-26T09:39:39.352Z,93423.72
2022-08-26T09:40:37.407Z,93427.34
2022-08-26T09:41:37.070Z,93419.97
2022-08-26T09:42:33.713Z,93405.81
2022-08-26T09:43:31.420Z,93416.88
2022-08-26T09:44:28.506Z,93422.41
2022-08-26T09:45:29.176Z,93427.56
2022-08-26T09:46:28.260Z,93426.88
2022-08-26T09:47:38.416Z,93420.63
2022-08-26T09:48:37.856Z,93432.94
2022-08-26T09:49:38.976Z,93440.88
2022-08-26T09:50:53.664Z,93435.56
2022-08-26T09:52:04.726Z,93437.53
2022-08-26T09:53:09.720Z,93430.19
2022-08-26T09:54:25.143Z,93433.00
2022-08-26T09:55:27.297Z,93430.88
2022-08-26T09:56:27.610Z,93428.22
2022-08-26T09:57:30.494Z,93421.91
2022-08-26T09:58:37.798Z,93423.75
2022-08-26T09:59:34.618Z,93415.69
2022-08-26T10:00:43.681Z,93427.50
2022-08-26T10:01:43.227Z,93424.97
2022-08-26T10:02:47.787Z,93423.72
2022-08-26T10:03:47.120Z,93423.56
2022-08-26T10:04:54.376Z,93419.56
2022-08-26T10:05:58.646Z,93418.28
2022-08-26T10:07:05.161Z,93423.25
2022-08-26T10:08:17.472Z,93420.00
2022-08-26T10:09:18.226Z,93417.63
2022-08-26T10:10:35.349Z,93422.66
2022-08-26T10:11:44.929Z,93414.25
2022-08-26T10:13:07.909Z,93414.09
2022-08-26T10:14:13.287Z,93409.69
2022-08-26T10:15:12.018Z,93412.75
2022-08-26T10:16:17.855Z,93412.28
2022-08-26T10:17:22.188Z,93416.19
2022-08-26T10:18:33.336Z,93414.16
2022-08-26T10:19:55.661Z,93416.84
2022-08-26T10:21:20.519Z,93416.69
2022-08-26T10:22:24.561Z,93414.44
2022-08-26T10:23:28.265Z,93412.19
2022-08-26T10:24:42.460Z,93407.47
2022-08-26T10:25:55.307Z,93409.91
2022-08-26T10:27:22.118Z,93416.25
2022-08-26T10:28:33.902Z,93412.66
2022-08-26T10:29:40.630Z,93411.72
2022-08-26T10:30:43.024Z,93410.47
2022-08-26T10:31:41.432Z,93412.25
2022-08-26T10:32:45.883Z,93412.81
2022-08-26T10:33:42.557Z,93415.16
2022-08-26T10:34:39.722Z,93411.56
2022-08-26T10:35:44.362Z,93412.28
2022-08-26T10:37:14.964Z,93413.44
2022-08-26T10:38:15.847Z,93411.09
2022-08-26T10:39:25.319Z,93413.72
2022-08-26T10:40:48.930Z,93414.88
2022-08-26T10:41:49.960Z,93405.38
2022-08-26T10:43:11.893Z,93416.09
2022-08-26T10:44:11.867Z,93405.97
2022-08-26T10:45:15.534Z,93413.19
2022-08-26T10:46:14.767Z,93407.16
2022-08-26T10:47:22.412Z,93407.25
2022-08-26T10:48:38.785Z,93404.56
2022-08-26T10:49:37.381Z,93383.63
2022-08-26T10:50:40.627Z,93405.09
2022-08-26T10:51:56.267Z,93392.78
2022-08-26T10:53:06.372Z,93399.53
2022-08-26T10:54:14.272Z,93395.25
2022-08-26T10:55:25.312Z,93396.97
2022-08-26T10:56:41.684Z,93393.25
2022-08-26T10:57:45.809Z,93394.88
2022-08-26T10:58:58.623Z,93396.09
2022-08-26T11:00:01.950Z,93400.09
2022-08-26T11:01:40.884Z,93399.09
2022-08-26T11:02:48.227Z,93386.94
2022-08-26T11:03:57.921Z,93399.88
2022-08-26T11:05:04.428Z,93387.63
2022-08-26T11:06:23.894Z,93390.16
2022-08-26T11:07:41.338Z,93387.44
2022-08-26T11:08:50.290Z,93380.75
2022-08-26T11:09:49.689Z,93378.19
2022-08-26T11:10:58.879Z,93369.53
2022-08-26T11:11:55.832Z,93372.00
2022-08-26T11:13:03.713Z,93381.72
2022-08-26T11:14:06.315Z,93378.44
2022-08-26T11:15:34.825Z,93374.50
2022-08-26T11:16:42.882Z,93383.84
2022-08-26T11:17:46.448Z,93386.09
2022-08-26T11:18:45.055Z,93380.41
2022-08-26T11:20:03.330Z,93380.47
2022-08-26T11:21:47.760Z,93397.34
2022-08-26T11:22:47.913Z,93382.31
2022-08-26T11:23:50.630Z,93376.31
2022-08-26T11:24:53.324Z,93383.88
2022-08-26T11:25:55.915Z,93379.03
2022-08-26T11:26:56.216Z,93377.84
2022-08-26T11:27:57.575Z,93372.94
2022-08-26T11:28:54.243Z,93381.47
2022-08-26T11:30:37.659Z,93376.66
2022-08-26T11:31:40.576Z,93379.63
2022-08-26T11:32:39.032Z,93380.78
2022-08-26T11:33:47.654Z,93383.47
2022-08-26T11:34:56.753Z,93383.19
2022-08-26T11:35:53.527Z,93375.19
2022-08-26T11:36:57.596Z,93378.41
2022-08-26T11:37:58.304Z,93370.81
2022-08-26T11:38:55.116Z,93374.72
2022-08-26T11:39:56.987Z,93381.75
2022-08-26T11:41:05.092Z,93372.59
2022-08-26T11:42:16.732Z,93376.19
2022-08-26T11:43:21.587Z,93379.91
2022-08-26T11:44:23.772Z,93371.81
2022-08-26T11:45:44.017Z,93373.97
2022-08-26T11:46:40.697Z,93380.63
2022-08-26T11:47:39.102Z,93368.41
2022-08-26T11:48:42.788Z,93360.00
2022-08-26T11:49:41.800Z,93373.69
2022-08-26T11:50:38.624Z,93359.63
2022-08-26T11:51:40.202Z,93362.53
2022-08-26T11:52:37.915Z,93361.22
2022-08-26T11:53:38.557Z,93373.16
2022-08-26T11:54:35.928Z,93372.81
2022-08-26T11:55:37.143Z,93364.72
2022-08-26T11:56:36.014Z,93375.03
2022-08-26T11:57:43.456Z,93358.34
2022-08-26T11:58:45.769Z,93354.16
2022-08-26T11:59:43.483Z,93364.75